sensor_id;sensor_type;location;lat;lon;timestamp;P1;durP1;ratioP1;P2;durP2;ratioP2
43945;SDS011;29599;51.196;4.428;2022-10-31T00:01:15;14.30;;;8.45;;
43945;SDS011;29599;51.196;4.428;2022-10-31T00:03:42;19.33;;;9.00;;
43945;SDS011;29599;51.196;4.428;2022-10-31T00:06:08;17.30;;;8.95;;
43945;SDS011;29599;51.196;4.428;2022-10-31T00:08:34;17.98;;;9.40;;
43945;SDS011;29599;51.196;4.428;2022-10-31T00:10:59;17.33;;;8.38;;
43945;SDS011;29599;51.196;4.428;2022-10-31T00:13:25;18.33;;;8.77;;
43945;SDS011;29599;51.196;4.428;2022-10-31T00:15:51;15.52;;;8.60;;
43945;SDS011;29599;51.196;4.428;2022-10-31T00:18:16;17.95;;;8.55;;
43945;SDS011;29599;51.196;4.428;2022-10-31T00:20:42;20.83;;;9.00;;
43945;SDS011;29599;51.196;4.428;2022-10-31T00:23:08;19.33;;;9.15;;
43945;SDS011;29599;51.196;4.428;2022-10-31T00:25:36;19.35;;;8.40;;
43945;SDS011;29599;51.196;4.428;2022-10-31T00:28:03;21.23;;;8.82;;
43945;SDS011;29599;51.196;4.428;2022-10-31T00:30:30;15.32;;;9.13;;
43945;SDS011;29599;51.196;4.428;2022-10-31T00:32:56;16.60;;;8.63;;
43945;SDS011;29599;51.196;4.428;2022-10-31T00:35:21;18.38;;;9.05;;
43945;SDS011;29599;51.196;4.428;2022-10-31T00:37:48;16.02;;;8.55;;
43945;SDS011;29599;51.196;4.428;2022-10-31T00:40:14;19.77;;;9.05;;
43945;SDS011;29599;51.196;4.428;2022-10-31T00:42:40;19.52;;;9.25;;
43945;SDS011;29599;51.196;4.428;2022-10-31T00:45:07;18.60;;;8.65;;
43945;SDS011;29599;51.196;4.428;2022-10-31T00:47:34;18.30;;;9.00;;
43945;SDS011;29599;51.196;4.428;2022-10-31T00:50:00;20.30;;;10.10;;
43945;SDS011;29599;51.196;4.428;2022-10-31T00:52:27;15.15;;;9.13;;
43945;SDS011;29599;51.196;4.428;2022-10-31T00:54:52;19.08;;;8.95;;
43945;SDS011;29599;51.196;4.428;2022-10-31T00:57:18;17.80;;;8.45;;
43945;SDS011;29599;51.196;4.428;2022-10-31T00:59:43;20.65;;;8.52;;
43945;SDS011;29599;51.196;4.428;2022-10-31T01:02:09;16.92;;;8.80;;
43945;SDS011;29599;51.196;4.428;2022-10-31T01:04:34;19.45;;;9.35;;
43945;SDS011;29599;51.196;4.428;2022-10-31T01:07:00;19.17;;;9.23;;
43945;SDS011;29599;51.196;4.428;2022-10-31T01:09:27;15.82;;;8.45;;
43945;SDS011;29599;51.196;4.428;2022-10-31T01:11:52;16.38;;;8.82;;
43945;SDS011;29599;51.196;4.428;2022-10-31T01:14:18;15.20;;;8.73;;
43945;SDS011;29599;51.196;4.428;2022-10-31T01:16:43;18.05;;;8.82;;
43945;SDS011;29599;51.196;4.428;2022-10-31T01:19:09;24.65;;;9.13;;
43945;SDS011;29599;51.196;4.428;2022-10-31T01:21:35;15.02;;;9.20;;
43945;SDS011;29599;51.196;4.428;2022-10-31T01:24:00;18.50;;;8.32;;
43945;SDS011;29599;51.196;4.428;2022-10-31T01:26:29;14.75;;;8.20;;
43945;SDS011;29599;51.196;4.428;2022-10-31T01:28:57;20.88;;;8.90;;
43945;SDS011;29599;51.196;4.428;2022-10-31T01:31:26;20.38;;;9.18;;
43945;SDS011;29599;51.196;4.428;2022-10-31T01:33:53;18.35;;;8.90;;
43945;SDS011;29599;51.196;4.428;2022-10-31T01:36:52;14.70;;;9.20;;
43945;SDS011;29599;51.196;4.428;2022-10-31T01:39:16;19.45;;;9.23;;
43945;SDS011;29599;51.196;4.428;2022-10-31T01:41:43;18.40;;;9.52;;
43945;SDS011;29599;51.196;4.428;2022-10-31T01:46:54;18.27;;;9.93;;
43945;SDS011;29599;51.196;4.428;2022-10-31T01:49:37;20.65;;;10.40;;
43945;SDS011;29599;51.196;4.428;2022-10-31T01:52:14;18.65;;;10.93;;
43945;SDS011;29599;51.196;4.428;2022-10-31T01:54:46;19.85;;;11.00;;
43945;SDS011;29599;51.196;4.428;2022-10-31T01:57:23;16.63;;;10.35;;
43945;SDS011;29599;51.196;4.428;2022-10-31T01:59:51;20.38;;;10.70;;
43945;SDS011;29599;51.196;4.428;2022-10-31T02:02:20;22.83;;;10.20;;
43945;SDS011;29599;51.196;4.428;2022-10-31T02:04:46;24.63;;;10.63;;
43945;SDS011;29599;51.196;4.428;2022-10-31T02:07:17;24.60;;;10.60;;
43945;SDS011;29599;51.196;4.428;2022-10-31T02:09:58;19.38;;;10.02;;
43945;SDS011;29599;51.196;4.428;2022-10-31T02:12:25;23.25;;;11.02;;
43945;SDS011;29599;51.196;4.428;2022-10-31T02:14:51;23.50;;;10.55;;
43945;SDS011;29599;51.196;4.428;2022-10-31T02:17:16;18.25;;;10.65;;
43945;SDS011;29599;51.196;4.428;2022-10-31T02:19:48;21.10;;;10.57;;
43945;SDS011;29599;51.196;4.428;2022-10-31T02:25:03;17.55;;;9.68;;
43945;SDS011;29599;51.196;4.428;2022-10-31T02:33:31;23.30;;;11.45;;
43945;SDS011;29599;51.196;4.428;2022-10-31T02:36:17;20.15;;;11.65;;
43945;SDS011;29599;51.196;4.428;2022-10-31T02:41:33;23.05;;;10.77;;
43945;SDS011;29599;51.196;4.428;2022-10-31T02:44:39;27.15;;;11.30;;
43945;SDS011;29599;51.196;4.428;2022-10-31T02:47:28;19.80;;;10.90;;
43945;SDS011;29599;51.196;4.428;2022-10-31T02:52:39;23.05;;;11.30;;
43945;SDS011;29599;51.196;4.428;2022-10-31T02:55:12;21.20;;;10.73;;
43945;SDS011;29599;51.196;4.428;2022-10-31T02:58:05;21.23;;;10.95;;
43945;SDS011;29599;51.196;4.428;2022-10-31T03:00:41;26.95;;;12.20;;
43945;SDS011;29599;51.196;4.428;2022-10-31T03:03:19;22.65;;;10.25;;
43945;SDS011;29599;51.196;4.428;2022-10-31T03:06:17;22.52;;;11.55;;
43945;SDS011;29599;51.196;4.428;2022-10-31T03:08:53;21.23;;;12.18;;
43945;SDS011;29599;51.196;4.428;2022-10-31T03:11:43;21.27;;;10.88;;
43945;SDS011;29599;51.196;4.428;2022-10-31T03:14:21;20.25;;;10.77;;
43945;SDS011;29599;51.196;4.428;2022-10-31T03:16:53;18.98;;;10.88;;
43945;SDS011;29599;51.196;4.428;2022-10-31T03:19:28;22.75;;;11.38;;
43945;SDS011;29599;51.196;4.428;2022-10-31T03:21:59;22.75;;;11.00;;
43945;SDS011;29599;51.196;4.428;2022-10-31T03:24:33;22.38;;;10.75;;
43945;SDS011;29599;51.196;4.428;2022-10-31T03:27:03;21.13;;;10.52;;
43945;SDS011;29599;51.196;4.428;2022-10-31T03:29:33;20.92;;;10.52;;
43945;SDS011;29599;51.196;4.428;2022-10-31T03:32:02;27.70;;;11.40;;
43945;SDS011;29599;51.196;4.428;2022-10-31T03:34:35;15.73;;;10.23;;
43945;SDS011;29599;51.196;4.428;2022-10-31T03:37:03;24.17;;;10.82;;
43945;SDS011;29599;51.196;4.428;2022-10-31T03:39:32;17.65;;;10.30;;
43945;SDS011;29599;51.196;4.428;2022-10-31T03:42:06;19.65;;;10.02;;
43945;SDS011;29599;51.196;4.428;2022-10-31T03:44:35;18.80;;;10.02;;
43945;SDS011;29599;51.196;4.428;2022-10-31T03:47:04;17.90;;;9.75;;
43945;SDS011;29599;51.196;4.428;2022-10-31T03:49:30;18.42;;;9.70;;
43945;SDS011;29599;51.196;4.428;2022-10-31T03:51:59;25.15;;;10.68;;
43945;SDS011;29599;51.196;4.428;2022-10-31T03:54:44;18.95;;;10.65;;
43945;SDS011;29599;51.196;4.428;2022-10-31T03:57:16;22.83;;;10.43;;
43945;SDS011;29599;51.196;4.428;2022-10-31T04:00:06;18.70;;;10.17;;
43945;SDS011;29599;51.196;4.428;2022-10-31T04:02:34;21.27;;;10.18;;
43945;SDS011;29599;51.196;4.428;2022-10-31T04:05:06;21.38;;;9.85;;
43945;SDS011;29599;51.196;4.428;2022-10-31T04:07:34;13.40;;;9.70;;
43945;SDS011;29599;51.196;4.428;2022-10-31T04:10:04;15.88;;;9.13;;
43945;SDS011;29599;51.196;4.428;2022-10-31T04:12:32;21.95;;;10.27;;
43945;SDS011;29599;51.196;4.428;2022-10-31T04:15:01;16.77;;;10.02;;
43945;SDS011;29599;51.196;4.428;2022-10-31T04:17:31;17.17;;;9.48;;
43945;SDS011;29599;51.196;4.428;2022-10-31T04:19:59;17.35;;;9.82;;
43945;SDS011;29599;51.196;4.428;2022-10-31T04:22:26;19.17;;;10.10;;
43945;SDS011;29599;51.196;4.428;2022-10-31T04:24:51;20.10;;;10.07;;
43945;SDS011;29599;51.196;4.428;2022-10-31T04:27:17;18.58;;;10.25;;
43945;SDS011;29599;51.196;4.428;2022-10-31T04:29:43;18.92;;;10.57;;
43945;SDS011;29599;51.196;4.428;2022-10-31T04:32:08;17.67;;;10.32;;
43945;SDS011;29599;51.196;4.428;2022-10-31T04:34:34;21.40;;;11.15;;
43945;SDS011;29599;51.196;4.428;2022-10-31T04:37:01;21.08;;;10.43;;
43945;SDS011;29599;51.196;4.428;2022-10-31T04:39:26;18.92;;;10.70;;
43945;SDS011;29599;51.196;4.428;2022-10-31T04:41:52;31.80;;;10.68;;
43945;SDS011;29599;51.196;4.428;2022-10-31T04:44:17;19.52;;;11.05;;
43945;SDS011;29599;51.196;4.428;2022-10-31T04:46:43;25.10;;;12.95;;
43945;SDS011;29599;51.196;4.428;2022-10-31T04:49:08;20.35;;;11.18;;
43945;SDS011;29599;51.196;4.428;2022-10-31T04:51:34;20.73;;;10.50;;
43945;SDS011;29599;51.196;4.428;2022-10-31T04:54:00;18.83;;;11.25;;
43945;SDS011;29599;51.196;4.428;2022-10-31T04:56:25;23.65;;;12.18;;
43945;SDS011;29599;51.196;4.428;2022-10-31T04:58:51;19.10;;;11.85;;
43945;SDS011;29599;51.196;4.428;2022-10-31T05:01:16;24.45;;;12.93;;
43945;SDS011;29599;51.196;4.428;2022-10-31T05:03:42;25.15;;;13.45;;
43945;SDS011;29599;51.196;4.428;2022-10-31T05:06:08;24.83;;;11.80;;
43945;SDS011;29599;51.196;4.428;2022-10-31T05:08:33;22.02;;;12.65;;
43945;SDS011;29599;51.196;4.428;2022-10-31T05:11:02;20.50;;;11.63;;
43945;SDS011;29599;51.196;4.428;2022-10-31T05:13:29;18.40;;;11.80;;
43945;SDS011;29599;51.196;4.428;2022-10-31T05:15:55;18.05;;;11.32;;
43945;SDS011;29599;51.196;4.428;2022-10-31T05:18:20;19.33;;;10.73;;
43945;SDS011;29599;51.196;4.428;2022-10-31T05:20:46;13.90;;;8.95;;
43945;SDS011;29599;51.196;4.428;2022-10-31T05:23:12;11.85;;;8.82;;
43945;SDS011;29599;51.196;4.428;2022-10-31T05:25:39;10.18;;;7.53;;
43945;SDS011;29599;51.196;4.428;2022-10-31T05:28:05;14.70;;;8.55;;
43945;SDS011;29599;51.196;4.428;2022-10-31T05:30:31;15.88;;;8.18;;
43945;SDS011;29599;51.196;4.428;2022-10-31T05:32:57;10.23;;;8.23;;
43945;SDS011;29599;51.196;4.428;2022-10-31T05:35:32;12.80;;;8.43;;
43945;SDS011;29599;51.196;4.428;2022-10-31T05:37:58;11.73;;;8.20;;
43945;SDS011;29599;51.196;4.428;2022-10-31T05:40:24;12.15;;;7.97;;
43945;SDS011;29599;51.196;4.428;2022-10-31T05:42:53;12.95;;;7.93;;
43945;SDS011;29599;51.196;4.428;2022-10-31T05:45:20;11.10;;;7.68;;
43945;SDS011;29599;51.196;4.428;2022-10-31T05:47:56;10.63;;;7.85;;
43945;SDS011;29599;51.196;4.428;2022-10-31T05:50:23;11.35;;;8.07;;
43945;SDS011;29599;51.196;4.428;2022-10-31T05:52:57;13.93;;;7.78;;
43945;SDS011;29599;51.196;4.428;2022-10-31T05:55:27;13.00;;;8.55;;
43945;SDS011;29599;51.196;4.428;2022-10-31T05:57:53;18.50;;;9.35;;
43945;SDS011;29599;51.196;4.428;2022-10-31T06:00:20;14.63;;;9.00;;
43945;SDS011;29599;51.196;4.428;2022-10-31T06:02:46;10.90;;;7.78;;
43945;SDS011;29599;51.196;4.428;2022-10-31T06:05:12;11.85;;;8.02;;
43945;SDS011;29599;51.196;4.428;2022-10-31T06:07:39;13.13;;;8.07;;
43945;SDS011;29599;51.196;4.428;2022-10-31T06:10:05;13.32;;;8.27;;
43945;SDS011;29599;51.196;4.428;2022-10-31T06:12:32;12.10;;;8.07;;
43945;SDS011;29599;51.196;4.428;2022-10-31T06:15:02;16.23;;;8.07;;
43945;SDS011;29599;51.196;4.428;2022-10-31T06:17:32;10.05;;;7.38;;
43945;SDS011;29599;51.196;4.428;2022-10-31T06:19:58;10.82;;;7.45;;
43945;SDS011;29599;51.196;4.428;2022-10-31T06:22:24;12.05;;;8.15;;
43945;SDS011;29599;51.196;4.428;2022-10-31T06:24:50;12.82;;;8.43;;
43945;SDS011;29599;51.196;4.428;2022-10-31T06:27:15;15.15;;;8.82;;
43945;SDS011;29599;51.196;4.428;2022-10-31T06:29:41;12.57;;;8.27;;
43945;SDS011;29599;51.196;4.428;2022-10-31T06:32:09;15.15;;;9.00;;
43945;SDS011;29599;51.196;4.428;2022-10-31T06:34:36;16.75;;;8.63;;
43945;SDS011;29599;51.196;4.428;2022-10-31T06:37:03;16.08;;;8.77;;
43945;SDS011;29599;51.196;4.428;2022-10-31T06:39:28;16.15;;;9.30;;
43945;SDS011;29599;51.196;4.428;2022-10-31T06:41:54;23.17;;;9.23;;
43945;SDS011;29599;51.196;4.428;2022-10-31T06:44:19;17.95;;;9.63;;
43945;SDS011;29599;51.196;4.428;2022-10-31T06:46:48;18.30;;;10.15;;
43945;SDS011;29599;51.196;4.428;2022-10-31T06:49:14;16.50;;;9.80;;
43945;SDS011;29599;51.196;4.428;2022-10-31T06:51:39;12.63;;;9.20;;
43945;SDS011;29599;51.196;4.428;2022-10-31T06:54:05;13.40;;;9.15;;
43945;SDS011;29599;51.196;4.428;2022-10-31T06:56:30;18.25;;;9.52;;
43945;SDS011;29599;51.196;4.428;2022-10-31T06:58:56;15.45;;;9.15;;
43945;SDS011;29599;51.196;4.428;2022-10-31T07:01:21;18.95;;;9.23;;
43945;SDS011;29599;51.196;4.428;2022-10-31T07:03:47;19.70;;;9.40;;
43945;SDS011;29599;51.196;4.428;2022-10-31T07:06:13;24.48;;;10.18;;
43945;SDS011;29599;51.196;4.428;2022-10-31T07:08:39;19.90;;;9.93;;
43945;SDS011;29599;51.196;4.428;2022-10-31T07:11:05;17.75;;;10.15;;
43945;SDS011;29599;51.196;4.428;2022-10-31T07:13:30;17.30;;;10.18;;
43945;SDS011;29599;51.196;4.428;2022-10-31T07:15:59;18.73;;;10.20;;
43945;SDS011;29599;51.196;4.428;2022-10-31T07:18:26;17.95;;;10.10;;
43945;SDS011;29599;51.196;4.428;2022-10-31T07:20:52;19.23;;;10.63;;
43945;SDS011;29599;51.196;4.428;2022-10-31T07:23:18;27.65;;;11.05;;
43945;SDS011;29599;51.196;4.428;2022-10-31T07:25:43;17.17;;;10.10;;
43945;SDS011;29599;51.196;4.428;2022-10-31T07:28:09;15.38;;;10.95;;
43945;SDS011;29599;51.196;4.428;2022-10-31T07:30:35;19.30;;;11.27;;
43945;SDS011;29599;51.196;4.428;2022-10-31T07:33:02;16.35;;;10.80;;
43945;SDS011;29599;51.196;4.428;2022-10-31T07:35:28;18.83;;;11.13;;
43945;SDS011;29599;51.196;4.428;2022-10-31T07:37:55;17.67;;;10.80;;
43945;SDS011;29599;51.196;4.428;2022-10-31T07:40:21;18.40;;;11.40;;
43945;SDS011;29599;51.196;4.428;2022-10-31T07:42:47;20.63;;;11.48;;
43945;SDS011;29599;51.196;4.428;2022-10-31T07:45:15;16.83;;;11.35;;
43945;SDS011;29599;51.196;4.428;2022-10-31T07:50:10;20.80;;;12.18;;
43945;SDS011;29599;51.196;4.428;2022-10-31T07:52:37;17.98;;;11.75;;
43945;SDS011;29599;51.196;4.428;2022-10-31T07:55:03;26.85;;;12.50;;
43945;SDS011;29599;51.196;4.428;2022-10-31T07:57:30;18.77;;;12.05;;
43945;SDS011;29599;51.196;4.428;2022-10-31T07:59:56;18.75;;;12.48;;
43945;SDS011;29599;51.196;4.428;2022-10-31T08:02:22;23.15;;;12.52;;
43945;SDS011;29599;51.196;4.428;2022-10-31T08:04:47;22.67;;;12.85;;
43945;SDS011;29599;51.196;4.428;2022-10-31T08:07:13;23.73;;;12.93;;
43945;SDS011;29599;51.196;4.428;2022-10-31T08:09:39;23.60;;;13.30;;
43945;SDS011;29599;51.196;4.428;2022-10-31T08:12:05;25.48;;;14.23;;
43945;SDS011;29599;51.196;4.428;2022-10-31T08:14:30;23.23;;;13.43;;
43945;SDS011;29599;51.196;4.428;2022-10-31T08:16:56;33.88;;;13.95;;
43945;SDS011;29599;51.196;4.428;2022-10-31T08:19:21;23.08;;;13.15;;
43945;SDS011;29599;51.196;4.428;2022-10-31T08:21:50;23.30;;;12.85;;
43945;SDS011;29599;51.196;4.428;2022-10-31T08:24:16;22.88;;;14.40;;
43945;SDS011;29599;51.196;4.428;2022-10-31T08:26:42;24.17;;;14.13;;
43945;SDS011;29599;51.196;4.428;2022-10-31T08:29:07;22.02;;;13.27;;
43945;SDS011;29599;51.196;4.428;2022-10-31T08:31:33;23.08;;;13.52;;
43945;SDS011;29599;51.196;4.428;2022-10-31T08:33:58;25.13;;;13.52;;
43945;SDS011;29599;51.196;4.428;2022-10-31T08:36:24;21.95;;;13.70;;
43945;SDS011;29599;51.196;4.428;2022-10-31T08:38:49;25.77;;;13.68;;
43945;SDS011;29599;51.196;4.428;2022-10-31T08:41:15;29.25;;;14.93;;
43945;SDS011;29599;51.196;4.428;2022-10-31T08:43:41;25.27;;;14.43;;
43945;SDS011;29599;51.196;4.428;2022-10-31T08:46:06;23.15;;;14.25;;
43945;SDS011;29599;51.196;4.428;2022-10-31T08:48:32;25.88;;;14.25;;
43945;SDS011;29599;51.196;4.428;2022-10-31T08:50:58;30.92;;;15.30;;
43945;SDS011;29599;51.196;4.428;2022-10-31T08:53:24;27.23;;;16.15;;
43945;SDS011;29599;51.196;4.428;2022-10-31T08:55:50;28.08;;;15.68;;
43945;SDS011;29599;51.196;4.428;2022-10-31T08:58:19;23.27;;;14.85;;
43945;SDS011;29599;51.196;4.428;2022-10-31T09:00:45;27.23;;;14.55;;
43945;SDS011;29599;51.196;4.428;2022-10-31T09:03:13;23.00;;;13.73;;
43945;SDS011;29599;51.196;4.428;2022-10-31T09:05:40;30.25;;;15.15;;
43945;SDS011;29599;51.196;4.428;2022-10-31T09:08:06;22.27;;;13.52;;
43945;SDS011;29599;51.196;4.428;2022-10-31T09:10:33;24.30;;;14.15;;
43945;SDS011;29599;51.196;4.428;2022-10-31T09:13:02;28.88;;;15.38;;
43945;SDS011;29599;51.196;4.428;2022-10-31T09:15:37;29.48;;;15.68;;
43945;SDS011;29599;51.196;4.428;2022-10-31T09:18:05;31.52;;;15.85;;
43945;SDS011;29599;51.196;4.428;2022-10-31T09:20:32;28.25;;;15.27;;
43945;SDS011;29599;51.196;4.428;2022-10-31T09:22:59;22.90;;;15.32;;
43945;SDS011;29599;51.196;4.428;2022-10-31T09:25:29;28.75;;;15.13;;
43945;SDS011;29599;51.196;4.428;2022-10-31T09:27:59;31.35;;;15.70;;
43945;SDS011;29599;51.196;4.428;2022-10-31T09:30:26;27.40;;;14.48;;
43945;SDS011;29599;51.196;4.428;2022-10-31T09:33:03;25.92;;;14.80;;
43945;SDS011;29599;51.196;4.428;2022-10-31T09:35:30;26.75;;;15.93;;
43945;SDS011;29599;51.196;4.428;2022-10-31T09:37:59;23.30;;;15.27;;
43945;SDS011;29599;51.196;4.428;2022-10-31T09:40:40;24.73;;;15.88;;
43945;SDS011;29599;51.196;4.428;2022-10-31T09:45:48;25.08;;;15.48;;
43945;SDS011;29599;51.196;4.428;2022-10-31T09:48:27;31.23;;;16.40;;
43945;SDS011;29599;51.196;4.428;2022-10-31T09:51:00;26.15;;;15.48;;
43945;SDS011;29599;51.196;4.428;2022-10-31T09:53:36;27.05;;;16.92;;
43945;SDS011;29599;51.196;4.428;2022-10-31T09:56:04;31.73;;;18.02;;
43945;SDS011;29599;51.196;4.428;2022-10-31T09:58:34;32.70;;;17.05;;
43945;SDS011;29599;51.196;4.428;2022-10-31T10:01:09;33.03;;;18.70;;
43945;SDS011;29599;51.196;4.428;2022-10-31T10:03:51;26.00;;;15.75;;
43945;SDS011;29599;51.196;4.428;2022-10-31T10:06:23;34.20;;;18.52;;
43945;SDS011;29599;51.196;4.428;2022-10-31T10:08:53;27.15;;;16.63;;
43945;SDS011;29599;51.196;4.428;2022-10-31T10:11:38;40.15;;;18.27;;
43945;SDS011;29599;51.196;4.428;2022-10-31T10:22:12;31.83;;;17.83;;
43945;SDS011;29599;51.196;4.428;2022-10-31T10:24:56;28.08;;;18.35;;
43945;SDS011;29599;51.196;4.428;2022-10-31T10:30:02;33.90;;;19.23;;
43945;SDS011;29599;51.196;4.428;2022-10-31T10:33:10;29.65;;;17.65;;
43945;SDS011;29599;51.196;4.428;2022-10-31T10:35:47;38.50;;;19.30;;
43945;SDS011;29599;51.196;4.428;2022-10-31T10:40:56;50.35;;;20.13;;
43945;SDS011;29599;51.196;4.428;2022-10-31T10:43:29;36.72;;;19.05;;
43945;SDS011;29599;51.196;4.428;2022-10-31T10:46:13;32.38;;;20.15;;
43945;SDS011;29599;51.196;4.428;2022-10-31T10:49:24;32.17;;;18.92;;
43945;SDS011;29599;51.196;4.428;2022-10-31T10:51:59;35.90;;;19.88;;
43945;SDS011;29599;51.196;4.428;2022-10-31T10:59:43;42.63;;;22.25;;
43945;SDS011;29599;51.196;4.428;2022-10-31T11:02:15;38.00;;;21.67;;
43945;SDS011;29599;51.196;4.428;2022-10-31T11:04:43;37.70;;;22.48;;
43945;SDS011;29599;51.196;4.428;2022-10-31T11:07:13;42.17;;;21.73;;
43945;SDS011;29599;51.196;4.428;2022-10-31T11:09:39;46.10;;;22.73;;
43945;SDS011;29599;51.196;4.428;2022-10-31T11:12:09;40.60;;;23.42;;
43945;SDS011;29599;51.196;4.428;2022-10-31T11:14:45;44.05;;;24.35;;
43945;SDS011;29599;51.196;4.428;2022-10-31T11:17:33;48.95;;;24.52;;
43945;SDS011;29599;51.196;4.428;2022-10-31T11:20:23;42.28;;;22.92;;
43945;SDS011;29599;51.196;4.428;2022-10-31T11:25:49;43.75;;;23.50;;
43945;SDS011;29599;51.196;4.428;2022-10-31T11:28:15;38.13;;;23.75;;
43945;SDS011;29599;51.196;4.428;2022-10-31T11:30:47;45.67;;;23.60;;
43945;SDS011;29599;51.196;4.428;2022-10-31T11:33:39;43.33;;;23.20;;
43945;SDS011;29599;51.196;4.428;2022-10-31T11:36:18;43.28;;;25.13;;
43945;SDS011;29599;51.196;4.428;2022-10-31T11:38:48;40.38;;;24.50;;
43945;SDS011;29599;51.196;4.428;2022-10-31T11:41:27;43.75;;;24.10;;
43945;SDS011;29599;51.196;4.428;2022-10-31T11:43:59;40.10;;;23.70;;
43945;SDS011;29599;51.196;4.428;2022-10-31T11:46:32;43.05;;;24.85;;
43945;SDS011;29599;51.196;4.428;2022-10-31T11:49:00;48.42;;;25.50;;
43945;SDS011;29599;51.196;4.428;2022-10-31T11:51:29;45.95;;;25.38;;
43945;SDS011;29599;51.196;4.428;2022-10-31T11:56:23;49.95;;;25.75;;
43945;SDS011;29599;51.196;4.428;2022-10-31T11:58:56;45.72;;;27.00;;
43945;SDS011;29599;51.196;4.428;2022-10-31T12:01:28;46.88;;;26.00;;
43945;SDS011;29599;51.196;4.428;2022-10-31T12:04:11;52.40;;;26.17;;
43945;SDS011;29599;51.196;4.428;2022-10-31T12:06:38;45.63;;;25.80;;
43945;SDS011;29599;51.196;4.428;2022-10-31T12:14:46;47.10;;;26.92;;
43945;SDS011;29599;51.196;4.428;2022-10-31T12:20:40;57.60;;;27.33;;
43945;SDS011;29599;51.196;4.428;2022-10-31T12:23:41;58.70;;;29.02;;
43945;SDS011;29599;51.196;4.428;2022-10-31T12:26:26;45.83;;;27.27;;
43945;SDS011;29599;51.196;4.428;2022-10-31T12:29:25;49.50;;;28.13;;
43945;SDS011;29599;51.196;4.428;2022-10-31T12:32:28;49.92;;;27.52;;
43945;SDS011;29599;51.196;4.428;2022-10-31T12:46:00;50.03;;;27.55;;
43945;SDS011;29599;51.196;4.428;2022-10-31T12:54:17;50.20;;;27.27;;
43945;SDS011;29599;51.196;4.428;2022-10-31T12:57:18;49.20;;;26.50;;
43945;SDS011;29599;51.196;4.428;2022-10-31T12:59:53;53.30;;;28.27;;
43945;SDS011;29599;51.196;4.428;2022-10-31T13:13:27;51.13;;;25.98;;
43945;SDS011;29599;51.196;4.428;2022-10-31T13:16:11;48.00;;;27.30;;
43945;SDS011;29599;51.196;4.428;2022-10-31T13:21:16;50.55;;;26.40;;
43945;SDS011;29599;51.196;4.428;2022-10-31T13:23:46;49.17;;;26.63;;
43945;SDS011;29599;51.196;4.428;2022-10-31T13:26:18;50.45;;;28.23;;
43945;SDS011;29599;51.196;4.428;2022-10-31T13:31:39;49.80;;;27.33;;
43945;SDS011;29599;51.196;4.428;2022-10-31T13:34:09;48.97;;;26.00;;
43945;SDS011;29599;51.196;4.428;2022-10-31T13:36:48;50.22;;;27.05;;
43945;SDS011;29599;51.196;4.428;2022-10-31T13:39:30;47.05;;;25.70;;
43945;SDS011;29599;51.196;4.428;2022-10-31T13:42:00;49.95;;;26.05;;
43945;SDS011;29599;51.196;4.428;2022-10-31T13:44:29;52.90;;;25.92;;
43945;SDS011;29599;51.196;4.428;2022-10-31T13:47:00;44.35;;;23.83;;
43945;SDS011;29599;51.196;4.428;2022-10-31T13:54:44;46.88;;;22.02;;
43945;SDS011;29599;51.196;4.428;2022-10-31T13:59:56;38.55;;;20.15;;
43945;SDS011;29599;51.196;4.428;2022-10-31T14:02:25;39.90;;;19.83;;
43945;SDS011;29599;51.196;4.428;2022-10-31T14:04:58;38.63;;;18.13;;
43945;SDS011;29599;51.196;4.428;2022-10-31T14:07:26;36.13;;;16.83;;
43945;SDS011;29599;51.196;4.428;2022-10-31T14:15:20;32.85;;;15.30;;
43945;SDS011;29599;51.196;4.428;2022-10-31T14:17:57;29.42;;;14.48;;
43945;SDS011;29599;51.196;4.428;2022-10-31T14:23:11;31.65;;;14.07;;
43945;SDS011;29599;51.196;4.428;2022-10-31T14:25:38;28.52;;;13.93;;
43945;SDS011;29599;51.196;4.428;2022-10-31T14:31:01;24.95;;;12.55;;
43945;SDS011;29599;51.196;4.428;2022-10-31T14:33:27;33.35;;;12.90;;
43945;SDS011;29599;51.196;4.428;2022-10-31T14:38:38;28.48;;;11.93;;
43945;SDS011;29599;51.196;4.428;2022-10-31T14:44:05;30.35;;;12.02;;
43945;SDS011;29599;51.196;4.428;2022-10-31T14:46:57;33.80;;;12.50;;
43945;SDS011;29599;51.196;4.428;2022-10-31T14:52:28;28.08;;;12.57;;
43945;SDS011;29599;51.196;4.428;2022-10-31T14:54:54;32.47;;;13.25;;
43945;SDS011;29599;51.196;4.428;2022-10-31T14:57:25;30.70;;;12.80;;
43945;SDS011;29599;51.196;4.428;2022-10-31T14:59:55;30.00;;;11.88;;
43945;SDS011;29599;51.196;4.428;2022-10-31T15:05:08;31.10;;;12.25;;
43945;SDS011;29599;51.196;4.428;2022-10-31T15:07:36;30.73;;;11.82;;
43945;SDS011;29599;51.196;4.428;2022-10-31T15:10:20;27.95;;;10.85;;
43945;SDS011;29599;51.196;4.428;2022-10-31T15:12:54;24.67;;;11.18;;
43945;SDS011;29599;51.196;4.428;2022-10-31T15:15:21;24.40;;;12.00;;
43945;SDS011;29599;51.196;4.428;2022-10-31T15:17:52;21.95;;;11.07;;
43945;SDS011;29599;51.196;4.428;2022-10-31T15:20:24;24.60;;;12.23;;
43945;SDS011;29599;51.196;4.428;2022-10-31T15:22:51;26.90;;;11.10;;
43945;SDS011;29599;51.196;4.428;2022-10-31T15:25:21;31.40;;;12.13;;
43945;SDS011;29599;51.196;4.428;2022-10-31T15:27:48;31.55;;;12.43;;
43945;SDS011;29599;51.196;4.428;2022-10-31T15:30:16;22.50;;;11.82;;
43945;SDS011;29599;51.196;4.428;2022-10-31T15:32:46;24.45;;;11.60;;
43945;SDS011;29599;51.196;4.428;2022-10-31T15:35:31;27.08;;;11.52;;
43945;SDS011;29599;51.196;4.428;2022-10-31T15:37:57;19.40;;;10.48;;
43945;SDS011;29599;51.196;4.428;2022-10-31T15:40:24;32.00;;;11.13;;
43945;SDS011;29599;51.196;4.428;2022-10-31T15:42:53;26.58;;;10.63;;
43945;SDS011;29599;51.196;4.428;2022-10-31T15:45:28;24.35;;;10.95;;
43945;SDS011;29599;51.196;4.428;2022-10-31T15:48:12;25.33;;;11.07;;
43945;SDS011;29599;51.196;4.428;2022-10-31T15:50:50;20.67;;;11.32;;
43945;SDS011;29599;51.196;4.428;2022-10-31T15:56:24;27.38;;;11.15;;
43945;SDS011;29599;51.196;4.428;2022-10-31T15:58:53;25.27;;;10.77;;
43945;SDS011;29599;51.196;4.428;2022-10-31T16:01:21;24.13;;;10.30;;
43945;SDS011;29599;51.196;4.428;2022-10-31T16:06:28;22.13;;;9.77;;
43945;SDS011;29599;51.196;4.428;2022-10-31T16:08:54;25.73;;;10.15;;
43945;SDS011;29599;51.196;4.428;2022-10-31T16:14:03;23.45;;;9.93;;
43945;SDS011;29599;51.196;4.428;2022-10-31T16:16:42;27.95;;;10.88;;
43945;SDS011;29599;51.196;4.428;2022-10-31T16:19:24;24.77;;;10.15;;
43945;SDS011;29599;51.196;4.428;2022-10-31T16:22:03;21.27;;;10.45;;
43945;SDS011;29599;51.196;4.428;2022-10-31T16:24:32;28.05;;;10.57;;
43945;SDS011;29599;51.196;4.428;2022-10-31T16:27:05;26.15;;;10.73;;
43945;SDS011;29599;51.196;4.428;2022-10-31T16:29:42;28.98;;;10.80;;
43945;SDS011;29599;51.196;4.428;2022-10-31T16:32:23;22.05;;;10.57;;
43945;SDS011;29599;51.196;4.428;2022-10-31T16:34:58;26.40;;;11.52;;
43945;SDS011;29599;51.196;4.428;2022-10-31T16:37:41;28.15;;;12.07;;
43945;SDS011;29599;51.196;4.428;2022-10-31T16:40:08;26.50;;;11.82;;
43945;SDS011;29599;51.196;4.428;2022-10-31T16:42:38;27.67;;;13.30;;
43945;SDS011;29599;51.196;4.428;2022-10-31T16:45:05;24.75;;;12.35;;
43945;SDS011;29599;51.196;4.428;2022-10-31T16:47:31;28.30;;;12.68;;
43945;SDS011;29599;51.196;4.428;2022-10-31T16:49:57;25.88;;;12.77;;
43945;SDS011;29599;51.196;4.428;2022-10-31T16:52:25;31.02;;;13.55;;